Time;durP1;ratioP1;P1;durP2;ratioP2;P2;SDS_P1;SDS_P2;PMS_P1;PMS_P2;Temp;Humidity;BMP_temperature;BMP_pressure;BME280_temperature;BME280_humidity;BME280_pressure;Samples;Min_cycle;Max_cycle;Signal;HPM_P1;HPM_P2
2023/05/18 00:00:18;;;;;;;8.18;2.53;;;;;;;8.19;61.14;101959.06;5110237;28;20051;-75
2023/05/18 00:02:48;;;;;;;10.88;2.38;;;;;;;8.16;61.56;101954.78;5111707;28;20067;-74
2023/05/18 00:05:19;;;;;;;10.52;2.67;;;;;;;8.12;61.20;101946.13;5112284;28;20075;-74
2023/05/18 00:07:46;;;;;;;12.60;2.67;;;;;;;8.12;61.29;101947.91;5110457;28;20040;-75
2023/05/18 00:10:13;;;;;;;20.83;3.08;;;;;;;8.10;62.08;101957.56;5110517;28;20074;-75
2023/05/18 00:12:41;;;;;;;8.00;2.25;;;;;;;8.07;62.17;101960.28;5109374;28;20078;-75
2023/05/18 00:15:09;;;;;;;10.00;2.35;;;;;;;8.06;62.31;101961.16;5111627;28;20067;-76
2023/05/18 00:17:36;;;;;;;12.63;2.50;;;;;;;8.05;62.22;101969.94;5111082;28;20052;-75
2023/05/18 00:20:04;;;;;;;10.32;2.30;;;;;;;8.02;62.76;101970.03;5110182;28;21021;-74
2023/05/18 00:22:31;;;;;;;13.63;2.28;;;;;;;8.00;62.08;101963.97;5108827;28;20063;-75
2023/05/18 00:24:58;;;;;;;10.93;2.75;;;;;;;7.99;62.98;101955.22;5074162;28;20155;-77
2023/05/18 00:27:30;;;;;;;12.90;2.65;;;;;;;7.97;63.03;101953.53;5109831;28;20048;-76
2023/05/18 00:29:57;;;;;;;9.10;2.40;;;;;;;7.94;63.17;101958.88;5110883;28;20079;-75
2023/05/18 00:32:25;;;;;;;7.13;1.63;;;;;;;7.92;63.32;101963.28;5110716;28;20048;-74
2023/05/18 00:34:52;;;;;;;9.93;2.92;;;;;;;7.89;63.69;101961.63;5101431;28;20063;-76
2023/05/18 00:37:19;;;;;;;13.43;2.42;;;;;;;7.87;63.41;101963.41;5109624;28;20075;-75
2023/05/18 00:39:48;;;;;;;10.52;2.05;;;;;;;7.87;63.62;101958.19;5096123;28;20048;-75
2023/05/18 00:42:15;;;;;;;9.00;2.47;;;;;;;7.85;63.51;101966.09;5112033;28;20071;-74
2023/05/18 00:44:42;;;;;;;17.42;3.35;;;;;;;7.84;64.40;101964.38;5113542;28;20032;-75
2023/05/18 00:47:10;;;;;;;14.63;2.58;;;;;;;7.81;64.25;101966.22;5113267;28;20052;-75
2023/05/18 00:49:37;;;;;;;8.88;2.22;;;;;;;7.81;63.79;101969.69;5112520;28;20051;-75
2023/05/18 00:52:05;;;;;;;12.40;2.03;;;;;;;7.81;64.43;101974.94;5108167;28;20058;-75
2023/05/18 00:54:33;;;;;;;14.77;2.50;;;;;;;7.78;65.39;101968.91;5112549;28;20044;-75
2023/05/18 00:57:05;;;;;;;9.68;2.90;;;;;;;7.75;64.98;101976.88;5110626;28;20060;-74
2023/05/18 00:59:33;;;;;;;12.82;2.10;;;;;;;7.75;65.50;101980.34;5108541;28;20062;-75
2023/05/18 01:02:00;;;;;;;10.32;2.13;;;;;;;7.73;65.28;101976.03;5091782;28;20063;-75
2023/05/18 01:04:30;;;;;;;10.48;2.45;;;;;;;7.72;65.98;101982.19;5105228;28;20527;-75
2023/05/18 01:07:05;;;;;;;11.45;3.08;;;;;;;7.69;65.93;101982.25;5112310;28;20070;-75
2023/05/18 01:09:33;;;;;;;9.95;2.45;;;;;;;7.67;65.71;101984.91;5111879;28;20064;-74
2023/05/18 01:12:28;;;;;;;13.50;2.33;;;;;;;7.68;65.71;101991.00;5104240;28;20067;-75
2023/05/18 01:15:06;;;;;;;15.25;2.70;;;;;;;7.66;66.12;101993.69;5106286;28;20078;-75
2023/05/18 01:17:43;;;;;;;10.88;2.05;;;;;;;7.65;66.40;101991.94;5093746;28;20060;-75
2023/05/18 01:20:14;;;;;;;10.25;2.42;;;;;;;7.64;65.92;101992.84;5090975;28;20049;-77
2023/05/18 01:22:41;;;;;;;10.27;2.25;;;;;;;7.65;65.96;101998.94;5111560;28;20098;-75
2023/05/18 01:25:16;;;;;;;9.27;2.47;;;;;;;7.62;66.31;101992.03;5112102;28;20048;-75
2023/05/18 01:27:45;;;;;;;11.60;2.55;;;;;;;7.60;66.43;101999.06;5103958;28;20040;-74
2023/05/18 01:30:16;;;;;;;9.35;2.72;;;;;;;7.58;67.81;102000.88;5111063;28;20075;-76
2023/05/18 01:32:47;;;;;;;11.25;2.47;;;;;;;7.53;67.28;101998.34;5112071;28;20067;-75
2023/05/18 01:35:14;;;;;;;10.65;1.75;;;;;;;7.53;67.87;102000.97;5116204;28;20063;-74
2023/05/18 01:37:41;;;;;;;9.73;2.35;;;;;;;7.51;67.67;102009.75;5106828;28;20156;-74
2023/05/18 01:40:09;;;;;;;12.05;2.63;;;;;;;7.50;67.78;102003.66;5107325;28;20052;-75
2023/05/18 01:42:40;;;;;;;11.57;2.30;;;;;;;7.49;67.58;102006.34;5113594;28;20040;-76
2023/05/18 01:45:15;;;;;;;7.15;2.33;;;;;;;7.47;68.02;102005.50;5105124;28;20116;-74
2023/05/18 01:47:44;;;;;;;9.60;2.00;;;;;;;7.47;68.34;102008.13;5101288;28;20060;-75
2023/05/18 01:50:21;;;;;;;14.25;2.30;;;;;;;7.44;68.62;102006.44;5107970;28;20111;-76
2023/05/18 01:52:58;;;;;;;9.45;2.33;;;;;;;7.44;68.31;102003.81;5107716;28;20040;-73
2023/05/18 01:55:28;;;;;;;11.70;2.85;;;;;;;7.44;68.60;102008.22;5112184;28;20052;-73
2023/05/18 01:57:57;;;;;;;13.45;2.45;;;;;;;7.44;68.62;102011.69;5110143;28;20575;-75
2023/05/18 02:00:25;;;;;;;10.40;2.67;;;;;;;7.42;68.57;102007.38;5102556;28;20607;-74
2023/05/18 02:02:52;;;;;;;8.45;2.40;;;;;;;7.40;69.01;102004.78;5105250;28;20037;-74
2023/05/18 02:05:19;;;;;;;10.02;1.95;;;;;;;7.39;68.65;102004.84;5098728;28;20142;-73
2023/05/18 02:07:47;;;;;;;18.42;2.53;;;;;;;7.40;68.67;102009.16;5101234;28;20058;-74
2023/05/18 02:10:14;;;;;;;11.00;2.50;;;;;;;7.39;68.30;102010.06;5102933;28;20702;-75
2023/05/18 02:12:42;;;;;;;10.30;2.53;;;;;;;7.36;69.02;102014.47;5103488;28;20036;-74
2023/05/18 02:15:09;;;;;;;12.43;2.80;;;;;;;7.32;69.58;102010.19;5101106;28;20107;-75
2023/05/18 02:17:36;;;;;;;10.90;2.40;;;;;;;7.30;69.40;102003.28;5103590;28;20068;-74
2023/05/18 02:20:07;;;;;;;11.10;2.17;;;;;;;7.26;69.94;101999.03;5096422;28;20052;-76
2023/05/18 02:22:37;;;;;;;15.13;3.03;;;;;;;7.25;69.98;102003.41;5098973;28;20071;-75
2023/05/18 02:25:06;;;;;;;8.60;2.28;;;;;;;7.23;70.35;102005.19;5082099;28;20044;-74
2023/05/18 02:27:34;;;;;;;13.43;3.30;;;;;;;7.21;70.14;102006.97;5098825;28;20066;-74
2023/05/18 02:30:07;;;;;;;16.42;2.92;;;;;;;7.19;70.32;102006.13;5095271;28;20070;-74
2023/05/18 02:32:37;;;;;;;12.50;2.83;;;;;;;7.17;70.53;102012.31;5097749;28;20044;-74
2023/05/18 02:35:06;;;;;;;11.07;2.00;;;;;;;7.16;70.47;102015.81;5100399;28;20603;-75
2023/05/18 02:37:38;;;;;;;8.68;2.20;;;;;;;7.15;71.01;102008.88;5097385;28;20298;-73
2023/05/18 02:40:09;;;;;;;5.85;1.77;;;;;;;7.15;70.41;102017.56;5098283;28;20119;-75
2023/05/18 02:42:36;;;;;;;14.13;2.58;;;;;;;7.14;70.31;102012.38;5098501;28;20048;-74
2023/05/18 02:45:04;;;;;;;5.57;1.50;;;;;;;7.15;70.42;102016.72;5090301;28;20403;-74
2023/05/18 02:47:31;;;;;;;12.65;2.33;;;;;;;7.14;71.14;102017.63;5088489;28;20053;-73
2023/05/18 02:49:58;;;;;;;10.73;2.15;;;;;;;7.13;70.98;102016.75;5073509;28;20044;-75
2023/05/18 02:52:26;;;;;;;13.82;2.58;;;;;;;7.12;71.21;102022.06;5089974;28;20135;-74
2023/05/18 02:59:18;;;;;;;10.70;2.38;;;;;;;7.09;71.67;102022.97;5091890;28;20054;-73
2023/05/18 03:01:49;;;;;;;10.73;2.67;;;;;;;7.05;71.03;102023.91;5085634;28;20056;-75
2023/05/18 03:04:16;;;;;;;9.57;2.40;;;;;;;7.03;72.04;102026.59;5090296;28;20452;-75
2023/05/18 03:06:45;;;;;;;14.68;2.90;;;;;;;7.03;71.65;102028.34;5089932;28;20568;-74
2023/05/18 03:09:16;;;;;;;8.55;2.35;;;;;;;7.03;71.85;102029.19;5070648;28;20621;-74
2023/05/18 03:11:44;;;;;;;9.07;2.33;;;;;;;7.04;72.01;102030.91;5084193;28;20048;-73
2023/05/18 03:15:01;;;;;;;14.52;2.28;;;;;;;7.04;72.63;102033.53;5086854;28;20074;-73
2023/05/18 03:17:29;;;;;;;;;;;;;;;7.03;72.30;102033.59;5071674;28;20505;-73
2023/05/18 03:19:56;;;;;;;9.63;2.22;;;;;;;7.01;72.08;102028.34;5085192;28;19923;-74
2023/05/18 03:22:23;;;;;;;9.07;2.88;;;;;;;7.02;72.48;102037.94;5088050;28;20052;-74
2023/05/18 03:24:50;;;;;;;7.45;2.35;;;;;;;7.02;72.56;102032.69;5091065;28;20662;-75
2023/05/18 03:27:21;;;;;;;8.75;2.40;;;;;;;7.05;72.66;102026.53;5081955;28;20044;-75
2023/05/18 03:29:49;;;;;;;7.07;1.85;;;;;;;7.07;72.88;102020.38;5089974;28;20060;-74
2023/05/18 03:32:17;;;;;;;8.55;2.35;;;;;;;7.12;72.73;102030.75;5090265;28;20482;-75
2023/05/18 03:34:46;;;;;;;7.15;2.13;;;;;;;7.14;72.98;102031.56;5070585;28;20054;-75
2023/05/18 03:37:14;;;;;;;7.50;2.33;;;;;;;7.17;73.32;102041.13;5088439;28;20512;-75
2023/05/18 03:39:42;;;;;;;6.88;2.13;;;;;;;7.18;72.81;102035.84;5068140;28;20462;-74
2023/05/18 03:42:09;;;;;;;10.07;2.67;;;;;;;7.23;72.88;102041.00;5086053;28;20056;-73
2023/05/18 03:44:37;;;;;;;11.77;2.40;;;;;;;7.24;72.73;102038.31;5086056;28;20058;-76
2023/05/18 03:47:04;;;;;;;17.50;3.17;;;;;;;7.27;72.89;102043.50;5085606;28;20157;-76
2023/05/18 03:49:33;;;;;;;12.75;2.85;;;;;;;7.29;72.82;102041.69;5088605;28;20058;-73
2023/05/18 03:52:02;;;;;;;9.00;2.80;;;;;;;7.28;72.57;102041.75;5086681;28;20138;-74
2023/05/18 03:54:31;;;;;;;8.93;2.65;;;;;;;7.30;72.37;102050.44;5087983;28;20060;-74
2023/05/18 03:56:58;;;;;;;8.43;2.50;;;;;;;7.30;73.04;102040.81;5072141;28;20056;-75
2023/05/18 03:59:26;;;;;;;15.07;2.90;;;;;;;7.35;72.41;102038.09;5087716;28;20066;-75
2023/05/18 04:01:53;;;;;;;12.02;2.65;;;;;;;7.37;72.75;102049.38;5086938;28;20047;-75
2023/05/18 04:08:34;;;;;;;15.80;2.22;;;;;;;7.45;72.50;102054.47;5085232;28;20035;-74
2023/05/18 04:11:01;;;;;;;11.25;2.38;;;;;;;7.47;72.41;102056.13;5079643;28;20051;-75
2023/05/18 04:13:28;;;;;;;10.75;2.22;;;;;;;7.50;72.54;102060.47;5087009;28;20062;-76
2023/05/18 04:15:57;;;;;;;9.32;2.35;;;;;;;7.50;72.84;102057.84;5088395;28;20048;-74
2023/05/18 04:18:28;;;;;;;8.30;2.38;;;;;;;7.51;72.78;102057.78;5086603;28;20044;-77
2023/05/18 04:20:56;;;;;;;10.80;2.20;;;;;;;7.55;72.66;102062.06;5086171;28;20058;-74
2023/05/18 04:23:23;;;;;;;9.82;2.70;;;;;;;7.55;73.10;102067.31;5089092;28;20503;-75
2023/05/18 04:25:51;;;;;;;12.68;2.97;;;;;;;7.56;72.87;102068.16;5087698;28;20048;-75
2023/05/18 04:28:21;;;;;;;16.50;3.00;;;;;;;7.58;73.21;102066.38;5089902;28;20524;-75
2023/05/18 04:30:48;;;;;;;11.70;2.65;;;;;;;7.63;72.51;102068.91;5067377;28;20416;-74
2023/05/18 04:33:16;;;;;;;9.90;2.10;;;;;;;7.67;72.52;102075.78;5085614;28;20510;-76
2023/05/18 04:35:43;;;;;;;16.30;2.03;;;;;;;7.72;72.63;102073.91;5088232;28;20052;-75
2023/05/18 04:38:10;;;;;;;9.65;2.60;;;;;;;7.76;72.75;102076.44;5088879;28;20131;-75
2023/05/18 04:40:41;;;;;;;12.45;2.88;;;;;;;7.80;71.90;102078.09;5069711;28;20133;-74
2023/05/18 04:43:09;;;;;;;9.98;2.70;;;;;;;7.85;71.74;102076.22;5088071;28;20123;-74
2023/05/18 04:45:36;;;;;;;12.88;2.92;;;;;;;7.91;71.54;102084.81;5087090;28;20040;-73
2023/05/18 04:48:04;;;;;;;9.82;2.05;;;;;;;7.93;71.99;102080.41;5071153;28;20411;-75
2023/05/18 04:50:31;;;;;;;14.63;3.10;;;;;;;7.97;71.36;102085.56;5088409;28;20075;-75
2023/05/18 04:53:00;;;;;;;8.50;2.33;;;;;;;8.01;71.75;102087.16;5067414;28;20044;-74
2023/05/18 04:55:29;;;;;;;12.90;2.67;;;;;;;8.04;71.93;102087.09;5088289;28;20063;-77
2023/05/18 04:57:59;;;;;;;13.98;3.08;;;;;;;8.04;71.79;102086.25;5090954;28;20054;-75
2023/05/18 05:00:30;;;;;;;13.90;2.90;;;;;;;8.06;71.67;102087.94;5047834;28;20131;-75
2023/05/18 05:02:58;;;;;;;16.15;2.88;;;;;;;8.14;71.25;102092.97;5087767;28;20093;-75
2023/05/18 05:05:25;;;;;;;20.05;3.28;;;;;;;8.20;71.72;102086.72;5085818;28;20123;-74
2023/05/18 05:07:54;;;;;;;17.20;2.80;;;;;;;8.29;71.24;102086.50;5088372;28;20066;-75
2023/05/18 05:10:22;;;;;;;23.83;3.63;;;;;;;8.36;71.17;102082.78;5086200;28;20151;-75
2023/05/18 05:12:49;;;;;;;10.95;2.75;;;;;;;8.41;71.14;102083.56;5094194;28;20139;-75
2023/05/18 05:15:17;;;;;;;10.57;2.38;;;;;;;8.49;71.32;102080.72;5092453;28;20079;-75
2023/05/18 05:17:46;;;;;;;12.20;2.58;;;;;;;8.54;70.99;102081.47;5079358;28;20032;-75
2023/05/18 05:20:13;;;;;;;10.93;2.63;;;;;;;8.61;70.62;102089.16;5087751;28;20051;-75
2023/05/18 05:22:40;;;;;;;9.00;2.58;;;;;;;8.69;70.18;102090.69;5088003;28;20047;-74
2023/05/18 05:25:08;;;;;;;20.45;3.30;;;;;;;8.73;70.20;102094.94;5086616;28;20058;-74
2023/05/18 05:27:35;;;;;;;13.95;2.80;;;;;;;8.78;70.58;102090.41;5087245;28;20052;-75
2023/05/18 05:30:03;;;;;;;15.27;2.80;;;;;;;8.83;70.62;102093.81;5088153;28;20078;-75
2023/05/18 05:32:30;;;;;;;15.05;3.25;;;;;;;8.91;69.25;102091.78;5093090;28;20525;-75
2023/05/18 05:34:58;;;;;;;9.32;2.13;;;;;;;8.99;69.42;102095.06;5092111;28;20086;-75
2023/05/18 05:37:25;;;;;;;14.02;3.10;;;;;;;9.06;69.51;102101.88;5094532;28;20072;-75
2023/05/18 05:39:52;;;;;;;15.48;3.35;;;;;;;9.16;69.15;102099.00;5092413;28;20146;-75
2023/05/18 05:42:19;;;;;;;13.77;2.55;;;;;;;9.24;69.14;102110.13;5092113;28;20048;-76
2023/05/18 05:44:47;;;;;;;13.40;3.15;;;;;;;9.34;68.76;102108.94;5090217;28;20062;-73
2023/05/18 05:47:14;;;;;;;16.55;3.20;;;;;;;9.44;68.33;102113.00;5089075;28;20602;-77
2023/05/18 05:49:41;;;;;;;9.63;2.20;;;;;;;9.49;68.30;102103.22;5093315;28;20048;-74
2023/05/18 05:52:08;;;;;;;10.80;2.72;;;;;;;9.59;67.90;102111.66;5074260;28;20055;-74
2023/05/18 05:54:36;;;;;;;13.05;3.15;;;;;;;9.70;67.35;102116.63;5071102;28;20048;-75
2023/05/18 05:57:03;;;;;;;9.18;2.40;;;;;;;9.75;67.41;102117.31;5092201;28;20054;-75
2023/05/18 05:59:30;;;;;;;13.55;2.72;;;;;;;9.77;66.83;102110.22;5090822;28;20126;-74
2023/05/18 06:01:58;;;;;;;13.55;2.90;;;;;;;9.83;67.19;102113.53;5086753;28;20612;-74
2023/05/18 06:04:25;;;;;;;12.95;2.50;;;;;;;9.96;66.57;102116.66;5091406;28;20052;-74
2023/05/18 06:06:53;;;;;;;13.10;2.78;;;;;;;10.09;65.99;102114.47;5092546;28;20123;-74
2023/05/18 06:09:20;;;;;;;11.50;2.50;;;;;;;10.21;65.42;102121.94;5092315;28;20056;-75
2023/05/18 06:11:47;;;;;;;12.27;2.85;;;;;;;10.31;65.03;102123.41;5089031;28;20048;-75
2023/05/18 06:14:14;;;;;;;18.65;3.65;;;;;;;10.42;64.41;102116.91;5093337;28;20131;-75
2023/05/18 06:16:42;;;;;;;15.93;2.20;;;;;;;10.47;64.83;102123.72;5091541;28;20056;-75
2023/05/18 06:19:09;;;;;;;11.75;2.78;;;;;;;10.52;64.73;102124.44;5092692;28;20101;-74
2023/05/18 06:21:36;;;;;;;12.45;2.97;;;;;;;10.63;64.01;102122.28;5093666;28;20071;-74
2023/05/18 06:24:04;;;;;;;10.68;2.05;;;;;;;10.76;63.65;102121.84;5092933;28;20127;-73
2023/05/18 06:26:31;;;;;;;12.90;2.35;;;;;;;10.88;63.37;102124.88;5093113;28;20128;-75
2023/05/18 06:28:59;;;;;;;14.15;3.15;;;;;;;11.00;62.96;102125.38;5093351;28;20135;-74
2023/05/18 06:31:27;;;;;;;12.85;2.45;;;;;;;11.04;62.87;102124.34;5093658;28;20070;-75
2023/05/18 06:33:56;;;;;;;13.48;2.80;;;;;;;11.11;62.24;102136.38;5095167;28;20059;-75
2023/05/18 06:36:23;;;;;;;9.57;2.42;;;;;;;11.24;62.15;102129.72;5092985;28;20055;-74
2023/05/18 06:38:51;;;;;;;9.93;2.20;;;;;;;11.36;61.77;102126.63;5094880;28;20043;-75
2023/05/18 06:41:18;;;;;;;12.23;2.65;;;;;;;11.46;61.71;102132.41;5092377;28;20075;-76
2023/05/18 06:43:45;;;;;;;12.15;2.80;;;;;;;11.54;61.12;102130.34;5076365;28;20502;-75
2023/05/18 06:46:20;;;;;;;12.55;2.58;;;;;;;11.60;60.81;102124.81;5094290;28;20075;-74
2023/05/18 06:48:47;;;;;;;9.15;2.45;;;;;;;11.67;60.20;102130.72;5094249;28;20059;-74
2023/05/18 06:51:15;;;;;;;9.95;2.67;;;;;;;11.71;60.27;102131.44;5092415;28;20112;-74
2023/05/18 06:53:42;;;;;;;13.05;2.53;;;;;;;11.83;59.80;102126.56;5094959;28;20136;-74
2023/05/18 06:56:12;;;;;;;8.48;2.25;;;;;;;11.90;59.07;102128.06;5094494;28;20062;-75
2023/05/18 06:58:40;;;;;;;11.38;2.53;;;;;;;11.99;58.94;102132.09;5094109;28;20051;-74
2023/05/18 07:01:08;;;;;;;6.63;2.50;;;;;;;12.08;58.31;102128.22;5092060;28;20044;-75
2023/05/18 07:03:36;;;;;;;8.52;2.30;;;;;;;12.18;57.96;102129.56;5091876;28;20729;-73
2023/05/18 07:06:03;;;;;;;9.25;2.08;;;;;;;12.28;57.60;102124.75;5092915;28;20143;-74
2023/05/18 07:08:31;;;;;;;10.52;2.72;;;;;;;12.32;57.07;102123.69;5075045;28;20661;-74
2023/05/18 07:11:01;;;;;;;11.43;2.35;;;;;;;12.38;56.29;102120.78;5086506;28;20516;-75
2023/05/18 07:13:28;;;;;;;11.63;2.05;;;;;;;12.33;56.86;102122.75;5091703;28;20054;-74
2023/05/18 07:15:56;;;;;;;11.63;3.45;;;;;;;12.35;56.43;102116.50;5091776;28;20152;-74
2023/05/18 07:18:23;;;;;;;8.60;1.77;;;;;;;12.36;56.01;102122.66;5091146;28;20050;-75
2023/05/18 07:20:51;;;;;;;12.68;2.03;;;;;;;12.43;55.45;102116.19;5074399;28;20472;-75
2023/05/18 07:23:18;;;;;;;11.38;2.25;;;;;;;12.51;54.98;102119.31;5069815;28;20124;-73
2023/05/18 07:25:45;;;;;;;8.18;2.13;;;;;;;12.56;54.28;102117.38;5093661;28;20064;-73
2023/05/18 07:28:12;;;;;;;10.68;2.83;;;;;;;12.52;53.52;102121.06;5094111;28;20139;-74
2023/05/18 07:30:40;;;;;;;10.43;2.53;;;;;;;12.63;53.45;102118.81;5076708;28;20059;-74
2023/05/18 07:33:07;;;;;;;11.05;2.33;;;;;;;12.69;52.66;102117.66;5092308;28;20135;-74
2023/05/18 07:35:35;;;;;;;11.07;2.58;;;;;;;12.76;52.03;102113.84;5091136;28;20526;-74
2023/05/18 07:38:02;;;;;;;9.80;2.47;;;;;;;12.88;52.60;102123.03;5094246;28;20052;-74
2023/05/18 07:40:29;;;;;;;10.63;2.03;;;;;;;12.97;51.98;102119.97;5093890;28;20526;-74
2023/05/18 07:42:57;;;;;;;10.13;2.00;;;;;;;13.07;51.71;102128.34;5091447;28;20062;-75
2023/05/18 07:45:24;;;;;;;9.40;2.83;;;;;;;13.13;51.97;102120.97;5092602;28;20083;-74
2023/05/18 07:47:51;;;;;;;11.77;2.35;;;;;;;13.25;51.85;102119.59;5092959;28;20054;-74
2023/05/18 07:50:19;;;;;;;6.30;2.00;;;;;;;13.51;51.09;102117.50;5075957;28;20048;-74
2023/05/18 07:52:46;;;;;;;12.18;2.00;;;;;;;13.74;49.29;102122.56;5093574;28;20044;-73
2023/05/18 07:55:14;;;;;;;6.40;1.40;;;;;;;14.04;49.09;102124.63;5091554;28;20044;-74
2023/05/18 07:57:41;;;;;;;15.93;2.78;;;;;;;14.25;48.79;102117.41;5077287;28;20468;-74
2023/05/18 08:00:09;;;;;;;6.72;1.77;;;;;;;14.24;47.57;102121.84;5094735;28;20085;-73
2023/05/18 08:02:36;;;;;;;14.50;2.33;;;;;;;14.39;46.63;102122.88;5093335;28;20052;-74
2023/05/18 08:05:04;;;;;;;11.18;2.13;;;;;;;14.54;47.11;102127.41;5107899;28;20059;-75
2023/05/18 08:07:32;;;;;;;15.00;2.58;;;;;;;14.78;45.95;102124.44;5089309;28;20048;-73
2023/05/18 08:09:59;;;;;;;5.75;1.50;;;;;;;14.84;45.04;102126.75;5088268;28;20056;-74
2023/05/18 08:12:28;;;;;;;9.60;1.63;;;;;;;15.01;44.54;102129.34;5072373;28;20072;-74
2023/05/18 08:14:56;;;;;;;8.85;1.75;;;;;;;15.16;43.79;102128.53;5099264;28;20040;-74
2023/05/18 08:17:23;;;;;;;8.40;1.60;;;;;;;15.15;44.01;102131.25;5090450;28;20048;-74
2023/05/18 08:19:52;;;;;;;8.02;1.92;;;;;;;15.31;43.73;102131.28;5059350;28;20066;-75
2023/05/18 08:22:20;;;;;;;12.65;1.60;;;;;;;15.31;44.19;102133.94;5093211;28;20058;-74
2023/05/18 08:24:47;;;;;;;9.43;1.80;;;;;;;15.30;43.65;102138.38;5091771;28;20055;-73
2023/05/18 08:27:14;;;;;;;8.13;1.95;;;;;;;15.21;43.94;102136.22;5090094;28;20054;-73
2023/05/18 08:29:42;;;;;;;8.68;2.25;;;;;;;15.17;44.20;102132.91;5086753;28;20136;-73
2023/05/18 08:32:09;;;;;;;7.50;1.83;;;;;;;15.09;44.22;102142.22;5070158;28;20069;-73
2023/05/18 08:34:36;;;;;;;6.60;2.10;;;;;;;14.95;44.59;102140.31;5086723;28;20098;-73
2023/05/18 08:37:04;;;;;;;7.07;1.67;;;;;;;14.93;44.98;102143.03;5070768;28;20058;-74
2023/05/18 08:39:31;;;;;;;6.47;1.90;;;;;;;14.85;44.96;102139.06;5088454;28;20059;-74
2023/05/18 08:42:31;;;;;;;7.32;1.60;;;;;;;14.67;45.09;102141.72;5087321;28;20056;-74
2023/05/18 08:45:24;;;;;;;;;;;;;;;14.53;45.56;102133.63;5047711;28;20063;-75
2023/05/18 08:47:55;;;;;;;9.60;2.10;;;;;;;14.54;45.36;102132.69;5086889;28;20408;-74
2023/05/18 08:50:23;;;;;;;12.20;2.30;;;;;;;14.65;45.32;102133.00;5087694;28;20040;-73
2023/05/18 08:52:53;;;;;;;5.65;2.00;;;;;;;14.82;45.04;102121.53;5088669;28;20064;-74
2023/05/18 08:55:22;;;;;;;9.32;2.22;;;;;;;15.11;44.51;102125.25;5086516;28;20062;-73
2023/05/18 08:57:55;;;;;;;8.85;2.25;;;;;;;15.51;44.05;102131.03;5086303;28;20046;-74
2023/05/18 09:00:23;;;;;;;9.73;1.98;;;;;;;15.93;43.57;102124.25;5086965;28;20131;-74
2023/05/18 09:02:51;;;;;;;8.40;1.60;;;;;;;16.35;42.57;102123.56;5069241;28;20241;-74
2023/05/18 09:05:19;;;;;;;7.88;2.47;;;;;;;16.69;42.19;102121.53;5089112;28;20040;-74
2023/05/18 09:07:49;;;;;;;6.57;1.80;;;;;;;17.06;41.71;102129.94;5087236;28;20124;-73
2023/05/18 09:10:17;;;;;;;8.00;1.90;;;;;;;17.29;41.11;102136.47;5085757;28;20052;-74
2023/05/18 09:12:46;;;;;;;6.43;1.65;;;;;;;17.37;40.62;102139.50;5067768;28;20062;-74
2023/05/18 09:15:16;;;;;;;7.70;1.77;;;;;;;17.28;39.81;102134.78;5090411;28;20040;-73
2023/05/18 09:17:43;;;;;;;6.65;2.08;;;;;;;17.06;39.50;102132.59;5089874;28;20597;-75
2023/05/18 09:20:11;;;;;;;7.07;2.08;;;;;;;16.99;39.62;102134.81;5094289;28;20078;-75
2023/05/18 09:22:39;;;;;;;7.15;2.00;;;;;;;16.83;39.50;102131.38;5088620;28;20044;-75
2023/05/18 09:25:09;;;;;;;5.93;1.58;;;;;;;16.79;39.95;102128.03;5087912;28;20052;-75
2023/05/18 09:27:37;;;;;;;7.90;1.73;;;;;;;16.81;40.07;102133.28;5081132;28;20562;-74
2023/05/18 09:30:10;;;;;;;6.95;1.95;;;;;;;16.89;40.04;102123.03;5086783;28;20139;-74
2023/05/18 09:32:37;;;;;;;5.85;1.60;;;;;;;16.90;39.93;102114.94;5085540;28;20111;-75
2023/05/18 09:35:05;;;;;;;5.05;1.60;;;;;;;17.01;40.07;102121.41;5094347;28;20695;-75
2023/05/18 09:37:33;;;;;;;11.85;1.73;;;;;;;17.29;39.91;102113.41;5091910;28;20051;-75
2023/05/18 09:40:03;;;;;;;9.45;2.47;;;;;;;17.63;39.72;102112.06;5087181;28;20120;-74
2023/05/18 09:42:37;;;;;;;8.13;1.98;;;;;;;17.63;38.14;102113.88;5086565;28;20064;-75
2023/05/18 09:45:19;;;;;;;6.43;1.77;;;;;;;17.64;38.40;102112.91;5070604;28;20050;-75
2023/05/18 09:47:48;;;;;;;7.18;1.70;;;;;;;17.72;38.59;102119.47;5083443;28;20051;-75
2023/05/18 09:50:19;;;;;;;14.07;2.40;;;;;;;17.87;38.83;102109.63;5085765;28;20048;-74
2023/05/18 09:57:12;;;;;;;9.80;2.05;;;;;;;18.50;37.88;102108.06;5086647;28;20039;-75
2023/05/18 09:59:40;;;;;;;7.68;2.10;;;;;;;18.69;37.44;102111.22;5086685;28;20050;-74
2023/05/18 10:02:11;;;;;;;5.88;1.50;;;;;;;18.68;35.76;102103.25;5087051;28;20058;-74
2023/05/18 10:04:41;;;;;;;8.02;1.40;;;;;;;18.75;35.76;102111.75;5083693;28;20044;-73
2023/05/18 10:07:14;;;;;;;4.25;1.40;;;;;;;18.25;34.67;102110.72;5084902;28;20044;-73
2023/05/18 10:09:43;;;;;;;3.13;1.05;;;;;;;17.89;36.11;102105.06;5087920;28;20553;-73
2023/05/18 10:12:15;;;;;;;8.63;1.92;;;;;;;17.54;36.77;102109.16;5084098;28;20051;-73
2023/05/18 10:14:44;;;;;;;6.40;2.10;;;;;;;17.18;36.56;102097.25;5099581;28;20051;-73
2023/05/18 10:17:13;;;;;;;5.68;1.35;;;;;;;16.80;36.71;102102.31;5086462;28;20044;-73
2023/05/18 10:19:44;;;;;;;9.13;1.65;;;;;;;16.81;37.30;102088.91;5090181;28;20071;-74
2023/05/18 10:22:14;;;;;;;5.32;1.50;;;;;;;16.87;37.53;102100.97;5089634;28;20067;-74
2023/05/18 10:24:44;;;;;;;8.15;1.90;;;;;;;16.95;37.72;102098.69;5071424;28;20140;-74
2023/05/18 10:27:13;;;;;;;6.15;2.05;;;;;;;17.00;37.42;102099.25;5085540;28;20044;-74
2023/05/18 10:29:41;;;;;;;11.50;2.20;;;;;;;17.04;37.66;102090.13;5073058;28;20055;-74
2023/05/18 10:32:11;;;;;;;10.13;1.80;;;;;;;17.05;37.68;102093.66;5091465;28;20431;-74
2023/05/18 10:34:39;;;;;;;8.43;1.50;;;;;;;17.10;37.90;102094.22;5093024;28;20131;-74
2023/05/18 10:37:07;;;;;;;10.00;2.15;;;;;;;17.28;37.64;102086.88;5098694;28;20591;-75
2023/05/18 10:39:37;;;;;;;5.07;1.52;;;;;;;17.67;37.16;102072.78;5094608;28;20044;-75
2023/05/18 10:42:07;;;;;;;5.65;1.48;;;;;;;18.05;37.23;102075.56;5071702;28;20055;-75
2023/05/18 10:44:35;;;;;;;8.35;1.92;;;;;;;18.46;37.08;102082.56;5090340;28;20058;-75
2023/05/18 10:47:04;;;;;;;8.25;2.10;;;;;;;18.72;36.10;102078.97;5084469;28;20135;-74
2023/05/18 10:49:33;;;;;;;6.68;2.00;;;;;;;19.04;36.20;102075.81;5089972;28;20058;-75
2023/05/18 10:52:02;;;;;;;5.43;1.05;;;;;;;19.48;35.32;102077.94;5089529;28;20124;-75
2023/05/18 10:54:29;;;;;;;8.40;1.67;;;;;;;19.78;34.88;102067.81;5073390;28;20052;-74
2023/05/18 10:56:56;;;;;;;4.78;1.27;;;;;;;20.01;34.06;102066.94;5071262;28;20500;-75
2023/05/18 10:59:24;;;;;;;5.65;1.70;;;;;;;20.11;33.79;102072.44;5089063;28;20076;-74
2023/05/18 11:01:52;;;;;;;7.25;2.00;;;;;;;20.00;33.54;102067.91;5097080;28;20083;-74
2023/05/18 11:04:28;;;;;;;4.97;1.73;;;;;;;19.69;33.70;102072.03;5089427;28;20054;-74
2023/05/18 11:07:00;;;;;;;10.73;1.75;;;;;;;19.50;33.75;102072.50;5053296;28;20048;-74
2023/05/18 11:09:28;;;;;;;9.07;1.85;;;;;;;19.29;34.11;102082.94;5090173;28;20054;-75
2023/05/18 11:11:57;;;;;;;5.35;1.63;;;;;;;19.35;34.59;102076.28;5092007;28;20515;-74
2023/05/18 11:14:26;;;;;;;9.05;2.40;;;;;;;19.51;34.89;102068.88;5092405;28;20054;-74
2023/05/18 11:17:16;;;;;;;5.13;1.73;;;;;;;19.83;33.85;102062.97;5089852;28;20127;-75
2023/05/18 11:23:00;;;;;;;6.10;1.60;;;;;;;20.60;32.43;102074.00;5089957;28;20504;-74
2023/05/18 11:25:37;;;;;;;4.90;1.70;;;;;;;20.80;32.67;102072.44;5087576;28;20058;-74
2023/05/18 11:28:06;;;;;;;5.57;1.70;;;;;;;21.01;31.45;102068.06;5087382;28;20047;-74
2023/05/18 11:30:39;;;;;;;5.35;1.65;;;;;;;21.28;32.15;102067.66;5079981;28;20062;-74
2023/05/18 11:33:39;;;;;;;5.00;1.60;;;;;;;21.51;31.26;102056.91;5084247;28;20507;-74
2023/05/18 11:36:11;;;;;;;8.77;1.92;;;;;;;21.84;32.24;102059.47;5062536;28;20056;-74
2023/05/18 11:38:53;;;;;;;4.20;1.50;;;;;;;21.98;31.39;102064.53;5088531;28;20328;-74
2023/05/18 11:41:31;;;;;;;7.07;1.55;;;;;;;22.32;31.09;102063.50;5086887;28;20078;-74
2023/05/18 11:44:11;;;;;;;7.38;2.03;;;;;;;22.58;30.49;102055.88;5085725;28;20046;-75
2023/05/18 11:46:54;;;;;;;11.50;1.90;;;;;;;22.30;28.78;102060.09;5087492;28;20042;-74
2023/05/18 11:49:23;;;;;;;3.65;1.38;;;;;;;22.44;28.93;102054.41;5085883;28;20067;-75
2023/05/18 11:52:19;;;;;;;7.45;1.40;;;;;;;22.61;28.29;102050.25;5092159;28;20533;-74